sensor_id;sensor_type;location;lat;lon;timestamp;P1;durP1;ratioP1;P2;durP2;ratioP2
12654;SDS011;6392;44.644;11.448;2024-02-15T00:02:13;14.37;;;10.03;;
12654;SDS011;6392;44.644;11.448;2024-02-15T00:04:42;15.47;;;11.13;;
12654;SDS011;6392;44.644;11.448;2024-02-15T00:07:10;13.67;;;9.97;;
12654;SDS011;6392;44.644;11.448;2024-02-15T00:09:37;12.97;;;10.27;;
12654;SDS011;6392;44.644;11.448;2024-02-15T00:12:04;17.07;;;11.87;;
12654;SDS011;6392;44.644;11.448;2024-02-15T00:14:31;17.20;;;10.63;;
12654;SDS011;6392;44.644;11.448;2024-02-15T00:16:58;13.70;;;10.77;;
12654;SDS011;6392;44.644;11.448;2024-02-15T00:19:26;13.00;;;10.47;;
12654;SDS011;6392;44.644;11.448;2024-02-15T00:21:56;15.60;;;10.53;;
12654;SDS011;6392;44.644;11.448;2024-02-15T00:24:23;11.53;;;8.47;;
12654;SDS011;6392;44.644;11.448;2024-02-15T00:26:50;10.47;;;7.87;;
12654;SDS011;6392;44.644;11.448;2024-02-15T00:29:18;10.37;;;7.77;;
12654;SDS011;6392;44.644;11.448;2024-02-15T00:31:45;12.30;;;7.50;;
12654;SDS011;6392;44.644;11.448;2024-02-15T00:34:14;15.13;;;10.17;;
12654;SDS011;6392;44.644;11.448;2024-02-15T00:36:41;16.27;;;10.27;;
12654;SDS011;6392;44.644;11.448;2024-02-15T00:39:11;15.97;;;10.83;;
12654;SDS011;6392;44.644;11.448;2024-02-15T00:41:39;15.53;;;10.53;;
12654;SDS011;6392;44.644;11.448;2024-02-15T00:44:07;14.53;;;10.27;;
12654;SDS011;6392;44.644;11.448;2024-02-15T00:46:35;12.47;;;8.97;;
12654;SDS011;6392;44.644;11.448;2024-02-15T00:49:02;15.63;;;11.23;;
12654;SDS011;6392;44.644;11.448;2024-02-15T00:51:31;19.43;;;12.60;;
12654;SDS011;6392;44.644;11.448;2024-02-15T00:53:59;15.67;;;11.47;;
12654;SDS011;6392;44.644;11.448;2024-02-15T00:56:28;17.27;;;11.70;;
12654;SDS011;6392;44.644;11.448;2024-02-15T00:58:57;22.50;;;13.97;;
12654;SDS011;6392;44.644;11.448;2024-02-15T01:01:25;21.50;;;13.07;;
12654;SDS011;6392;44.644;11.448;2024-02-15T01:03:53;18.07;;;11.83;;
12654;SDS011;6392;44.644;11.448;2024-02-15T01:06:20;16.67;;;12.17;;
12654;SDS011;6392;44.644;11.448;2024-02-15T01:08:47;16.40;;;10.93;;
12654;SDS011;6392;44.644;11.448;2024-02-15T01:11:14;14.33;;;11.00;;
12654;SDS011;6392;44.644;11.448;2024-02-15T01:13:42;17.87;;;11.77;;
12654;SDS011;6392;44.644;11.448;2024-02-15T01:16:10;20.30;;;12.80;;
12654;SDS011;6392;44.644;11.448;2024-02-15T01:18:37;18.77;;;12.90;;
12654;SDS011;6392;44.644;11.448;2024-02-15T01:21:04;18.47;;;12.47;;
12654;SDS011;6392;44.644;11.448;2024-02-15T01:23:31;24.17;;;14.47;;
12654;SDS011;6392;44.644;11.448;2024-02-15T01:26:00;20.33;;;13.60;;
12654;SDS011;6392;44.644;11.448;2024-02-15T01:28:27;23.83;;;13.80;;
12654;SDS011;6392;44.644;11.448;2024-02-15T01:30:56;22.53;;;13.10;;
12654;SDS011;6392;44.644;11.448;2024-02-15T01:33:23;23.03;;;13.73;;
12654;SDS011;6392;44.644;11.448;2024-02-15T01:35:50;22.60;;;13.10;;
12654;SDS011;6392;44.644;11.448;2024-02-15T01:38:17;20.13;;;12.70;;
12654;SDS011;6392;44.644;11.448;2024-02-15T01:40:44;19.27;;;11.97;;
12654;SDS011;6392;44.644;11.448;2024-02-15T01:43:13;18.73;;;11.50;;
12654;SDS011;6392;44.644;11.448;2024-02-15T01:45:40;16.47;;;11.27;;
12654;SDS011;6392;44.644;11.448;2024-02-15T01:48:09;23.17;;;13.13;;
12654;SDS011;6392;44.644;11.448;2024-02-15T01:50:37;19.43;;;12.37;;
12654;SDS011;6392;44.644;11.448;2024-02-15T01:53:04;17.90;;;12.33;;
12654;SDS011;6392;44.644;11.448;2024-02-15T01:55:33;17.53;;;11.80;;
12654;SDS011;6392;44.644;11.448;2024-02-15T01:58:00;19.13;;;11.33;;
12654;SDS011;6392;44.644;11.448;2024-02-15T02:00:28;13.47;;;10.47;;
12654;SDS011;6392;44.644;11.448;2024-02-15T02:05:42;14.53;;;9.13;;
12654;SDS011;6392;44.644;11.448;2024-02-15T02:08:10;15.53;;;9.70;;
12654;SDS011;6392;44.644;11.448;2024-02-15T02:10:37;14.93;;;10.40;;
12654;SDS011;6392;44.644;11.448;2024-02-15T02:13:03;14.03;;;9.07;;
12654;SDS011;6392;44.644;11.448;2024-02-15T02:15:31;15.90;;;9.97;;
12654;SDS011;6392;44.644;11.448;2024-02-15T02:17:58;15.37;;;10.20;;
12654;SDS011;6392;44.644;11.448;2024-02-15T02:20:28;14.17;;;9.70;;
12654;SDS011;6392;44.644;11.448;2024-02-15T02:22:56;12.07;;;9.20;;
12654;SDS011;6392;44.644;11.448;2024-02-15T02:25:33;14.07;;;9.57;;
12654;SDS011;6392;44.644;11.448;2024-02-15T02:28:01;12.90;;;10.33;;
12654;SDS011;6392;44.644;11.448;2024-02-15T02:30:28;13.37;;;9.30;;
12654;SDS011;6392;44.644;11.448;2024-02-15T02:32:55;12.70;;;8.93;;
12654;SDS011;6392;44.644;11.448;2024-02-15T02:35:24;12.03;;;8.30;;
12654;SDS011;6392;44.644;11.448;2024-02-15T02:37:52;20.07;;;12.13;;
12654;SDS011;6392;44.644;11.448;2024-02-15T02:40:19;18.43;;;11.13;;
12654;SDS011;6392;44.644;11.448;2024-02-15T02:42:48;12.73;;;8.27;;
12654;SDS011;6392;44.644;11.448;2024-02-15T02:45:18;17.83;;;10.63;;
12654;SDS011;6392;44.644;11.448;2024-02-15T02:47:47;15.67;;;10.50;;
12654;SDS011;6392;44.644;11.448;2024-02-15T02:50:14;15.70;;;11.03;;
12654;SDS011;6392;44.644;11.448;2024-02-15T02:52:42;18.63;;;11.27;;
12654;SDS011;6392;44.644;11.448;2024-02-15T02:55:09;14.40;;;9.17;;
12654;SDS011;6392;44.644;11.448;2024-02-15T02:57:36;17.83;;;10.53;;
12654;SDS011;6392;44.644;11.448;2024-02-15T03:00:06;19.13;;;10.37;;
12654;SDS011;6392;44.644;11.448;2024-02-15T03:02:37;15.87;;;10.33;;
12654;SDS011;6392;44.644;11.448;2024-02-15T03:05:05;18.83;;;11.90;;
12654;SDS011;6392;44.644;11.448;2024-02-15T03:07:33;16.30;;;11.27;;
12654;SDS011;6392;44.644;11.448;2024-02-15T03:10:01;15.93;;;10.73;;
12654;SDS011;6392;44.644;11.448;2024-02-15T03:12:29;16.40;;;9.90;;
12654;SDS011;6392;44.644;11.448;2024-02-15T03:14:56;15.53;;;10.63;;
12654;SDS011;6392;44.644;11.448;2024-02-15T03:17:25;15.57;;;9.90;;
12654;SDS011;6392;44.644;11.448;2024-02-15T03:19:52;14.80;;;10.03;;
12654;SDS011;6392;44.644;11.448;2024-02-15T03:22:20;17.43;;;11.53;;
12654;SDS011;6392;44.644;11.448;2024-02-15T03:24:50;17.97;;;11.23;;
12654;SDS011;6392;44.644;11.448;2024-02-15T03:27:17;18.57;;;11.03;;
12654;SDS011;6392;44.644;11.448;2024-02-15T03:29:48;18.07;;;10.50;;
12654;SDS011;6392;44.644;11.448;2024-02-15T03:32:16;16.37;;;10.60;;
12654;SDS011;6392;44.644;11.448;2024-02-15T03:34:45;15.10;;;9.57;;
12654;SDS011;6392;44.644;11.448;2024-02-15T03:37:11;14.70;;;8.70;;
12654;SDS011;6392;44.644;11.448;2024-02-15T03:39:38;13.20;;;8.37;;
12654;SDS011;6392;44.644;11.448;2024-02-15T03:42:06;11.13;;;7.97;;
12654;SDS011;6392;44.644;11.448;2024-02-15T03:44:33;12.10;;;9.10;;
12654;SDS011;6392;44.644;11.448;2024-02-15T03:47:00;10.47;;;6.90;;
12654;SDS011;6392;44.644;11.448;2024-02-15T03:49:27;10.93;;;7.37;;
12654;SDS011;6392;44.644;11.448;2024-02-15T03:51:57;13.00;;;8.80;;
12654;SDS011;6392;44.644;11.448;2024-02-15T03:54:24;12.03;;;7.50;;
12654;SDS011;6392;44.644;11.448;2024-02-15T03:56:51;10.43;;;7.77;;
12654;SDS011;6392;44.644;11.448;2024-02-15T03:59:19;15.50;;;9.53;;
12654;SDS011;6392;44.644;11.448;2024-02-15T04:01:50;14.23;;;9.83;;
12654;SDS011;6392;44.644;11.448;2024-02-15T04:04:17;16.07;;;10.53;;
12654;SDS011;6392;44.644;11.448;2024-02-15T04:06:46;19.10;;;10.63;;
12654;SDS011;6392;44.644;11.448;2024-02-15T04:09:14;15.07;;;9.33;;
12654;SDS011;6392;44.644;11.448;2024-02-15T04:11:42;16.13;;;10.90;;
12654;SDS011;6392;44.644;11.448;2024-02-15T04:14:12;14.00;;;9.73;;
12654;SDS011;6392;44.644;11.448;2024-02-15T04:16:39;13.40;;;9.10;;
12654;SDS011;6392;44.644;11.448;2024-02-15T04:19:06;14.10;;;9.33;;
12654;SDS011;6392;44.644;11.448;2024-02-15T04:21:33;12.70;;;8.73;;
12654;SDS011;6392;44.644;11.448;2024-02-15T04:24:00;14.97;;;9.30;;
12654;SDS011;6392;44.644;11.448;2024-02-15T04:26:28;16.07;;;9.67;;
12654;SDS011;6392;44.644;11.448;2024-02-15T04:28:57;16.50;;;9.87;;
12654;SDS011;6392;44.644;11.448;2024-02-15T04:31:24;13.13;;;9.20;;
12654;SDS011;6392;44.644;11.448;2024-02-15T04:33:52;12.43;;;8.40;;
12654;SDS011;6392;44.644;11.448;2024-02-15T04:36:19;12.27;;;8.37;;
12654;SDS011;6392;44.644;11.448;2024-02-15T04:38:50;11.97;;;8.23;;
12654;SDS011;6392;44.644;11.448;2024-02-15T04:41:17;12.97;;;7.87;;
12654;SDS011;6392;44.644;11.448;2024-02-15T04:43:49;11.53;;;8.20;;
12654;SDS011;6392;44.644;11.448;2024-02-15T04:46:16;12.93;;;8.37;;
12654;SDS011;6392;44.644;11.448;2024-02-15T04:48:46;13.50;;;8.80;;
12654;SDS011;6392;44.644;11.448;2024-02-15T04:51:14;14.70;;;8.57;;
12654;SDS011;6392;44.644;11.448;2024-02-15T04:53:42;10.87;;;8.03;;
12654;SDS011;6392;44.644;11.448;2024-02-15T04:56:11;11.70;;;7.97;;
12654;SDS011;6392;44.644;11.448;2024-02-15T04:58:40;10.13;;;7.43;;
12654;SDS011;6392;44.644;11.448;2024-02-15T05:01:13;13.23;;;8.30;;
12654;SDS011;6392;44.644;11.448;2024-02-15T05:03:41;14.97;;;8.87;;
12654;SDS011;6392;44.644;11.448;2024-02-15T05:06:09;12.97;;;8.50;;
12654;SDS011;6392;44.644;11.448;2024-02-15T05:08:38;16.87;;;9.07;;
12654;SDS011;6392;44.644;11.448;2024-02-15T05:11:07;11.07;;;8.07;;
12654;SDS011;6392;44.644;11.448;2024-02-15T05:13:40;12.50;;;8.57;;
12654;SDS011;6392;44.644;11.448;2024-02-15T05:16:07;12.70;;;7.67;;
12654;SDS011;6392;44.644;11.448;2024-02-15T05:18:35;11.10;;;7.43;;
12654;SDS011;6392;44.644;11.448;2024-02-15T05:21:03;12.90;;;7.23;;
12654;SDS011;6392;44.644;11.448;2024-02-15T05:23:34;12.73;;;7.63;;
12654;SDS011;6392;44.644;11.448;2024-02-15T05:26:01;11.00;;;7.33;;
12654;SDS011;6392;44.644;11.448;2024-02-15T05:28:29;9.13;;;7.10;;
12654;SDS011;6392;44.644;11.448;2024-02-15T05:31:10;14.47;;;8.07;;
12654;SDS011;6392;44.644;11.448;2024-02-15T05:33:40;12.37;;;8.00;;
12654;SDS011;6392;44.644;11.448;2024-02-15T05:36:09;13.77;;;7.80;;
12654;SDS011;6392;44.644;11.448;2024-02-15T05:38:36;14.40;;;8.30;;
12654;SDS011;6392;44.644;11.448;2024-02-15T05:41:03;10.63;;;7.53;;
12654;SDS011;6392;44.644;11.448;2024-02-15T05:43:32;12.90;;;7.80;;
12654;SDS011;6392;44.644;11.448;2024-02-15T05:46:01;12.10;;;7.50;;
12654;SDS011;6392;44.644;11.448;2024-02-15T05:48:29;11.70;;;7.93;;
12654;SDS011;6392;44.644;11.448;2024-02-15T05:50:58;11.63;;;8.10;;
12654;SDS011;6392;44.644;11.448;2024-02-15T05:53:25;14.63;;;8.00;;
12654;SDS011;6392;44.644;11.448;2024-02-15T05:55:54;12.53;;;7.87;;
12654;SDS011;6392;44.644;11.448;2024-02-15T05:58:23;12.73;;;8.63;;
12654;SDS011;6392;44.644;11.448;2024-02-15T06:00:50;10.63;;;7.80;;
12654;SDS011;6392;44.644;11.448;2024-02-15T06:03:18;9.33;;;6.97;;
12654;SDS011;6392;44.644;11.448;2024-02-15T06:05:47;9.90;;;7.13;;
12654;SDS011;6392;44.644;11.448;2024-02-15T06:08:15;12.20;;;6.77;;
12654;SDS011;6392;44.644;11.448;2024-02-15T06:10:43;11.23;;;7.53;;
12654;SDS011;6392;44.644;11.448;2024-02-15T06:13:12;10.77;;;6.70;;
12654;SDS011;6392;44.644;11.448;2024-02-15T06:15:39;10.07;;;6.57;;
12654;SDS011;6392;44.644;11.448;2024-02-15T06:18:06;10.07;;;6.60;;
12654;SDS011;6392;44.644;11.448;2024-02-15T06:20:37;9.57;;;7.00;;
12654;SDS011;6392;44.644;11.448;2024-02-15T06:23:04;10.30;;;7.43;;
12654;SDS011;6392;44.644;11.448;2024-02-15T06:25:34;10.27;;;7.03;;
12654;SDS011;6392;44.644;11.448;2024-02-15T06:28:01;10.57;;;6.90;;
12654;SDS011;6392;44.644;11.448;2024-02-15T06:30:38;11.73;;;8.07;;
12654;SDS011;6392;44.644;11.448;2024-02-15T06:33:23;13.03;;;7.57;;
12654;SDS011;6392;44.644;11.448;2024-02-15T06:36:07;14.57;;;8.33;;
12654;SDS011;6392;44.644;11.448;2024-02-15T06:38:52;12.07;;;7.90;;
12654;SDS011;6392;44.644;11.448;2024-02-15T06:41:38;13.33;;;7.60;;
12654;SDS011;6392;44.644;11.448;2024-02-15T06:44:05;13.33;;;8.93;;
12654;SDS011;6392;44.644;11.448;2024-02-15T06:46:32;14.17;;;8.30;;
12654;SDS011;6392;44.644;11.448;2024-02-15T06:48:59;13.83;;;7.80;;
12654;SDS011;6392;44.644;11.448;2024-02-15T06:51:26;12.27;;;7.53;;
12654;SDS011;6392;44.644;11.448;2024-02-15T06:53:53;11.00;;;7.77;;
12654;SDS011;6392;44.644;11.448;2024-02-15T06:56:21;14.00;;;8.13;;
12654;SDS011;6392;44.644;11.448;2024-02-15T06:58:50;10.63;;;7.90;;
12654;SDS011;6392;44.644;11.448;2024-02-15T07:01:18;11.97;;;7.60;;
12654;SDS011;6392;44.644;11.448;2024-02-15T07:03:45;11.60;;;7.63;;
12654;SDS011;6392;44.644;11.448;2024-02-15T07:06:12;13.70;;;8.83;;
12654;SDS011;6392;44.644;11.448;2024-02-15T07:08:39;14.63;;;8.40;;
12654;SDS011;6392;44.644;11.448;2024-02-15T07:11:07;12.80;;;8.80;;
12654;SDS011;6392;44.644;11.448;2024-02-15T07:13:34;13.27;;;9.13;;
12654;SDS011;6392;44.644;11.448;2024-02-15T07:16:05;17.23;;;8.63;;
12654;SDS011;6392;44.644;11.448;2024-02-15T07:18:33;16.10;;;8.37;;
12654;SDS011;6392;44.644;11.448;2024-02-15T07:21:00;20.87;;;8.83;;
12654;SDS011;6392;44.644;11.448;2024-02-15T07:23:33;12.83;;;8.33;;
12654;SDS011;6392;44.644;11.448;2024-02-15T07:26:00;14.50;;;7.90;;
12654;SDS011;6392;44.644;11.448;2024-02-15T07:28:28;14.20;;;8.50;;
12654;SDS011;6392;44.644;11.448;2024-02-15T07:30:56;11.27;;;7.97;;
12654;SDS011;6392;44.644;11.448;2024-02-15T07:33:24;13.77;;;8.77;;
12654;SDS011;6392;44.644;11.448;2024-02-15T07:35:51;14.63;;;9.67;;
12654;SDS011;6392;44.644;11.448;2024-02-15T07:38:19;13.03;;;9.13;;
12654;SDS011;6392;44.644;11.448;2024-02-15T07:40:47;14.83;;;8.87;;
12654;SDS011;6392;44.644;11.448;2024-02-15T07:43:15;18.63;;;10.33;;
12654;SDS011;6392;44.644;11.448;2024-02-15T07:45:42;16.20;;;10.60;;
12654;SDS011;6392;44.644;11.448;2024-02-15T07:48:09;17.03;;;10.63;;
12654;SDS011;6392;44.644;11.448;2024-02-15T07:50:37;16.50;;;11.00;;
12654;SDS011;6392;44.644;11.448;2024-02-15T07:53:07;15.73;;;10.10;;
12654;SDS011;6392;44.644;11.448;2024-02-15T07:55:35;18.20;;;10.70;;
12654;SDS011;6392;44.644;11.448;2024-02-15T07:58:03;17.17;;;10.53;;
12654;SDS011;6392;44.644;11.448;2024-02-15T08:00:30;17.07;;;10.53;;
12654;SDS011;6392;44.644;11.448;2024-02-15T08:02:57;19.63;;;11.20;;
12654;SDS011;6392;44.644;11.448;2024-02-15T08:05:24;17.60;;;11.13;;
12654;SDS011;6392;44.644;11.448;2024-02-15T08:07:54;20.83;;;11.30;;
12654;SDS011;6392;44.644;11.448;2024-02-15T08:10:22;23.90;;;11.27;;
12654;SDS011;6392;44.644;11.448;2024-02-15T08:12:50;20.23;;;11.43;;
12654;SDS011;6392;44.644;11.448;2024-02-15T08:15:18;23.83;;;12.20;;
12654;SDS011;6392;44.644;11.448;2024-02-15T08:17:45;26.23;;;13.37;;
12654;SDS011;6392;44.644;11.448;2024-02-15T08:20:13;21.40;;;12.40;;
12654;SDS011;6392;44.644;11.448;2024-02-15T08:22:42;23.77;;;14.37;;
12654;SDS011;6392;44.644;11.448;2024-02-15T08:25:12;21.13;;;13.97;;
12654;SDS011;6392;44.644;11.448;2024-02-15T08:27:41;26.87;;;15.33;;
12654;SDS011;6392;44.644;11.448;2024-02-15T08:30:09;22.40;;;13.70;;
12654;SDS011;6392;44.644;11.448;2024-02-15T08:32:38;22.80;;;14.33;;
12654;SDS011;6392;44.644;11.448;2024-02-15T08:35:07;26.40;;;17.23;;
12654;SDS011;6392;44.644;11.448;2024-02-15T08:37:35;32.00;;;16.03;;
12654;SDS011;6392;44.644;11.448;2024-02-15T08:40:03;26.53;;;15.63;;
12654;SDS011;6392;44.644;11.448;2024-02-15T08:42:36;26.30;;;16.23;;
12654;SDS011;6392;44.644;11.448;2024-02-15T08:45:05;23.47;;;14.77;;
12654;SDS011;6392;44.644;11.448;2024-02-15T08:47:34;24.97;;;14.70;;
12654;SDS011;6392;44.644;11.448;2024-02-15T08:50:03;22.43;;;14.57;;
12654;SDS011;6392;44.644;11.448;2024-02-15T08:52:30;22.97;;;14.77;;
12654;SDS011;6392;44.644;11.448;2024-02-15T08:54:58;24.10;;;14.97;;
12654;SDS011;6392;44.644;11.448;2024-02-15T08:57:26;24.97;;;15.77;;
12654;SDS011;6392;44.644;11.448;2024-02-15T08:59:54;23.63;;;14.93;;
12654;SDS011;6392;44.644;11.448;2024-02-15T09:02:22;24.47;;;15.30;;
12654;SDS011;6392;44.644;11.448;2024-02-15T09:04:49;22.57;;;15.00;;
12654;SDS011;6392;44.644;11.448;2024-02-15T09:07:16;23.17;;;15.20;;
12654;SDS011;6392;44.644;11.448;2024-02-15T09:09:43;24.80;;;14.97;;
12654;SDS011;6392;44.644;11.448;2024-02-15T09:12:11;28.47;;;16.17;;
12654;SDS011;6392;44.644;11.448;2024-02-15T09:14:38;24.20;;;15.70;;
12654;SDS011;6392;44.644;11.448;2024-02-15T09:17:07;25.30;;;16.73;;
12654;SDS011;6392;44.644;11.448;2024-02-15T09:19:34;27.00;;;17.20;;
12654;SDS011;6392;44.644;11.448;2024-02-15T09:22:02;24.90;;;17.43;;
12654;SDS011;6392;44.644;11.448;2024-02-15T09:24:29;27.17;;;17.93;;
12654;SDS011;6392;44.644;11.448;2024-02-15T09:26:58;24.77;;;17.57;;
12654;SDS011;6392;44.644;11.448;2024-02-15T09:29:27;31.80;;;18.87;;
12654;SDS011;6392;44.644;11.448;2024-02-15T09:31:55;34.47;;;19.47;;
12654;SDS011;6392;44.644;11.448;2024-02-15T09:34:23;32.97;;;21.27;;
12654;SDS011;6392;44.644;11.448;2024-02-15T09:36:51;30.27;;;21.03;;
12654;SDS011;6392;44.644;11.448;2024-02-15T09:39:18;30.07;;;21.07;;
12654;SDS011;6392;44.644;11.448;2024-02-15T09:41:45;33.27;;;20.67;;
12654;SDS011;6392;44.644;11.448;2024-02-15T09:44:18;34.97;;;20.77;;
12654;SDS011;6392;44.644;11.448;2024-02-15T09:46:46;27.23;;;19.63;;
12654;SDS011;6392;44.644;11.448;2024-02-15T09:49:19;30.17;;;19.60;;
12654;SDS011;6392;44.644;11.448;2024-02-15T09:51:48;33.20;;;21.63;;
12654;SDS011;6392;44.644;11.448;2024-02-15T09:54:16;37.23;;;21.93;;
12654;SDS011;6392;44.644;11.448;2024-02-15T09:56:48;34.90;;;22.90;;
12654;SDS011;6392;44.644;11.448;2024-02-15T09:59:16;36.30;;;23.77;;
12654;SDS011;6392;44.644;11.448;2024-02-15T10:01:44;34.90;;;23.03;;
12654;SDS011;6392;44.644;11.448;2024-02-15T10:04:13;36.60;;;23.87;;
12654;SDS011;6392;44.644;11.448;2024-02-15T10:06:41;39.07;;;25.63;;
12654;SDS011;6392;44.644;11.448;2024-02-15T10:09:26;33.90;;;24.27;;
12654;SDS011;6392;44.644;11.448;2024-02-15T10:11:54;35.43;;;22.77;;
12654;SDS011;6392;44.644;11.448;2024-02-15T10:14:22;37.40;;;25.47;;
12654;SDS011;6392;44.644;11.448;2024-02-15T10:16:50;37.40;;;24.70;;
12654;SDS011;6392;44.644;11.448;2024-02-15T10:19:18;32.27;;;22.67;;
12654;SDS011;6392;44.644;11.448;2024-02-15T10:21:50;33.50;;;23.70;;
12654;SDS011;6392;44.644;11.448;2024-02-15T10:24:20;38.83;;;24.83;;
12654;SDS011;6392;44.644;11.448;2024-02-15T10:26:50;35.57;;;24.30;;
12654;SDS011;6392;44.644;11.448;2024-02-15T10:29:18;34.57;;;23.93;;
12654;SDS011;6392;44.644;11.448;2024-02-15T10:31:52;34.23;;;24.50;;
12654;SDS011;6392;44.644;11.448;2024-02-15T10:34:21;42.20;;;26.60;;
12654;SDS011;6392;44.644;11.448;2024-02-15T10:36:48;38.60;;;26.43;;
12654;SDS011;6392;44.644;11.448;2024-02-15T10:39:16;38.37;;;25.83;;
12654;SDS011;6392;44.644;11.448;2024-02-15T10:41:45;38.33;;;26.30;;
12654;SDS011;6392;44.644;11.448;2024-02-15T10:44:15;37.57;;;24.97;;
12654;SDS011;6392;44.644;11.448;2024-02-15T10:46:45;42.37;;;27.33;;
12654;SDS011;6392;44.644;11.448;2024-02-15T10:49:16;37.90;;;26.53;;
12654;SDS011;6392;44.644;11.448;2024-02-15T10:51:48;44.43;;;28.10;;
12654;SDS011;6392;44.644;11.448;2024-02-15T10:54:24;42.37;;;27.10;;
12654;SDS011;6392;44.644;11.448;2024-02-15T10:57:03;42.53;;;27.67;;
12654;SDS011;6392;44.644;11.448;2024-02-15T10:59:34;41.33;;;27.33;;
12654;SDS011;6392;44.644;11.448;2024-02-15T11:02:06;42.70;;;28.80;;
12654;SDS011;6392;44.644;11.448;2024-02-15T11:04:52;45.30;;;29.30;;
12654;SDS011;6392;44.644;11.448;2024-02-15T11:07:23;43.37;;;28.90;;
12654;SDS011;6392;44.644;11.448;2024-02-15T11:09:51;45.13;;;27.33;;
12654;SDS011;6392;44.644;11.448;2024-02-15T11:12:19;44.83;;;28.23;;
12654;SDS011;6392;44.644;11.448;2024-02-15T11:14:49;45.30;;;29.43;;
12654;SDS011;6392;44.644;11.448;2024-02-15T11:20:28;43.33;;;27.77;;
12654;SDS011;6392;44.644;11.448;2024-02-15T11:23:14;40.67;;;26.57;;
12654;SDS011;6392;44.644;11.448;2024-02-15T11:25:50;42.93;;;27.67;;
12654;SDS011;6392;44.644;11.448;2024-02-15T11:31:05;41.47;;;27.73;;
12654;SDS011;6392;44.644;11.448;2024-02-15T11:33:38;38.67;;;27.17;;
12654;SDS011;6392;44.644;11.448;2024-02-15T11:36:06;41.00;;;27.27;;
12654;SDS011;6392;44.644;11.448;2024-02-15T11:38:35;44.10;;;28.40;;
12654;SDS011;6392;44.644;11.448;2024-02-15T11:41:02;47.53;;;28.87;;
12654;SDS011;6392;44.644;11.448;2024-02-15T11:46:25;40.93;;;26.83;;
12654;SDS011;6392;44.644;11.448;2024-02-15T11:48:56;44.27;;;27.10;;
12654;SDS011;6392;44.644;11.448;2024-02-15T11:51:24;39.43;;;26.07;;
12654;SDS011;6392;44.644;11.448;2024-02-15T11:54:02;42.47;;;27.37;;
12654;SDS011;6392;44.644;11.448;2024-02-15T11:59:19;40.33;;;27.53;;
12654;SDS011;6392;44.644;11.448;2024-02-15T12:01:58;38.93;;;25.03;;
12654;SDS011;6392;44.644;11.448;2024-02-15T12:04:43;42.50;;;26.07;;
12654;SDS011;6392;44.644;11.448;2024-02-15T12:07:27;39.00;;;26.87;;
12654;SDS011;6392;44.644;11.448;2024-02-15T12:10:16;42.07;;;26.37;;
12654;SDS011;6392;44.644;11.448;2024-02-15T12:13:00;39.27;;;25.57;;
12654;SDS011;6392;44.644;11.448;2024-02-15T12:15:55;41.20;;;27.63;;
12654;SDS011;6392;44.644;11.448;2024-02-15T12:18:43;47.60;;;28.23;;
12654;SDS011;6392;44.644;11.448;2024-02-15T12:21:14;42.10;;;27.93;;
12654;SDS011;6392;44.644;11.448;2024-02-15T12:23:46;45.57;;;30.03;;
12654;SDS011;6392;44.644;11.448;2024-02-15T12:26:13;47.57;;;28.53;;
12654;SDS011;6392;44.644;11.448;2024-02-15T12:28:40;50.20;;;30.10;;
12654;SDS011;6392;44.644;11.448;2024-02-15T12:31:08;43.37;;;30.03;;
12654;SDS011;6392;44.644;11.448;2024-02-15T12:33:38;44.90;;;29.83;;
12654;SDS011;6392;44.644;11.448;2024-02-15T12:36:07;42.67;;;29.93;;
12654;SDS011;6392;44.644;11.448;2024-02-15T12:38:35;41.17;;;28.47;;
12654;SDS011;6392;44.644;11.448;2024-02-15T12:41:03;47.83;;;31.50;;
12654;SDS011;6392;44.644;11.448;2024-02-15T12:43:43;44.10;;;28.77;;
12654;SDS011;6392;44.644;11.448;2024-02-15T12:46:10;44.60;;;28.27;;
12654;SDS011;6392;44.644;11.448;2024-02-15T12:48:37;47.10;;;28.70;;
12654;SDS011;6392;44.644;11.448;2024-02-15T12:51:14;46.27;;;29.03;;
12654;SDS011;6392;44.644;11.448;2024-02-15T12:53:41;43.93;;;29.33;;
12654;SDS011;6392;44.644;11.448;2024-02-15T12:56:08;43.87;;;28.37;;
12654;SDS011;6392;44.644;11.448;2024-02-15T12:58:36;41.80;;;27.97;;
12654;SDS011;6392;44.644;11.448;2024-02-15T13:01:04;40.53;;;26.97;;
12654;SDS011;6392;44.644;11.448;2024-02-15T13:03:31;42.73;;;28.43;;
12654;SDS011;6392;44.644;11.448;2024-02-15T13:05:58;42.90;;;27.33;;
12654;SDS011;6392;44.644;11.448;2024-02-15T13:08:26;39.47;;;26.87;;
12654;SDS011;6392;44.644;11.448;2024-02-15T13:10:53;42.33;;;27.50;;
12654;SDS011;6392;44.644;11.448;2024-02-15T13:13:21;37.70;;;26.57;;
12654;SDS011;6392;44.644;11.448;2024-02-15T13:15:48;42.10;;;27.13;;
12654;SDS011;6392;44.644;11.448;2024-02-15T13:18:16;40.50;;;26.23;;
12654;SDS011;6392;44.644;11.448;2024-02-15T13:20:43;40.07;;;25.57;;
12654;SDS011;6392;44.644;11.448;2024-02-15T13:23:14;36.83;;;25.47;;
12654;SDS011;6392;44.644;11.448;2024-02-15T13:25:48;38.23;;;25.53;;
12654;SDS011;6392;44.644;11.448;2024-02-15T13:28:17;39.43;;;26.10;;
12654;SDS011;6392;44.644;11.448;2024-02-15T13:30:44;38.83;;;26.10;;
12654;SDS011;6392;44.644;11.448;2024-02-15T13:33:11;38.73;;;25.97;;
12654;SDS011;6392;44.644;11.448;2024-02-15T13:35:39;40.97;;;26.47;;
12654;SDS011;6392;44.644;11.448;2024-02-15T13:38:06;36.20;;;24.90;;
12654;SDS011;6392;44.644;11.448;2024-02-15T13:40:39;39.70;;;25.73;;
12654;SDS011;6392;44.644;11.448;2024-02-15T13:43:08;40.40;;;26.37;;
12654;SDS011;6392;44.644;11.448;2024-02-15T13:45:38;43.50;;;27.27;;
12654;SDS011;6392;44.644;11.448;2024-02-15T13:48:06;40.73;;;25.80;;
12654;SDS011;6392;44.644;11.448;2024-02-15T13:50:36;37.00;;;25.50;;
12654;SDS011;6392;44.644;11.448;2024-02-15T13:53:03;40.70;;;27.03;;
12654;SDS011;6392;44.644;11.448;2024-02-15T13:55:31;40.40;;;25.20;;
12654;SDS011;6392;44.644;11.448;2024-02-15T13:57:59;41.80;;;23.77;;
12654;SDS011;6392;44.644;11.448;2024-02-15T14:00:28;38.03;;;24.93;;
12654;SDS011;6392;44.644;11.448;2024-02-15T14:02:58;39.53;;;24.80;;
12654;SDS011;6392;44.644;11.448;2024-02-15T14:05:27;41.70;;;24.60;;
12654;SDS011;6392;44.644;11.448;2024-02-15T14:07:55;37.47;;;24.50;;
12654;SDS011;6392;44.644;11.448;2024-02-15T14:10:23;39.90;;;26.00;;
12654;SDS011;6392;44.644;11.448;2024-02-15T14:12:52;39.80;;;25.53;;
12654;SDS011;6392;44.644;11.448;2024-02-15T14:15:20;38.37;;;25.03;;
12654;SDS011;6392;44.644;11.448;2024-02-15T14:17:49;37.53;;;23.83;;
12654;SDS011;6392;44.644;11.448;2024-02-15T14:20:16;36.57;;;25.73;;
12654;SDS011;6392;44.644;11.448;2024-02-15T14:22:45;39.47;;;26.10;;
12654;SDS011;6392;44.644;11.448;2024-02-15T14:25:14;39.97;;;26.43;;
12654;SDS011;6392;44.644;11.448;2024-02-15T14:27:41;42.03;;;26.40;;
12654;SDS011;6392;44.644;11.448;2024-02-15T14:30:09;39.90;;;24.37;;
12654;SDS011;6392;44.644;11.448;2024-02-15T14:32:55;42.03;;;26.90;;
12654;SDS011;6392;44.644;11.448;2024-02-15T14:35:30;43.53;;;27.00;;
12654;SDS011;6392;44.644;11.448;2024-02-15T14:38:01;43.13;;;27.40;;
12654;SDS011;6392;44.644;11.448;2024-02-15T14:40:31;40.23;;;27.23;;
12654;SDS011;6392;44.644;11.448;2024-02-15T14:42:59;41.57;;;27.00;;
12654;SDS011;6392;44.644;11.448;2024-02-15T14:45:26;40.20;;;26.93;;
12654;SDS011;6392;44.644;11.448;2024-02-15T14:47:55;43.47;;;26.37;;
12654;SDS011;6392;44.644;11.448;2024-02-15T14:50:22;37.93;;;24.13;;
12654;SDS011;6392;44.644;11.448;2024-02-15T14:52:50;37.83;;;24.30;;